Terminal Aerodrome Forecast
Issued by NWS

Home | Current Version | Previous Version | Graphics & Text | Print | Product List | Glossary On
Versions: 1 2 3 4 5 6 7 8 9 10 11 12 13 14 15 16 17 18 19 20 21
000
FTUS42 KMHX 050600 AAA
TAFOAJ
TAF AMD
KOAJ 050600Z 0506/0606 20011KT 6SM BR SCT006 SCT250
     FM050900 20010KT 4SM BR BKN005
     FM051900 01013G20KT 5SM -SHRA OVC007
     FM052100 01015G25KT 3SM -RA OVC005
     FM060200 01016G24KT 2SM -FZRA OVC004
      AMD LTD TO CLD VIS AND WIND=

USA.gov is the U.S. government's official web portal to all federal, state and local government web resources and services.